Latest Coastal Weather Observations for Brisbane Airport

IDQ60701

Issued at 8:11 pm EST Tuesday 21 February 2017 (issued every 10 minutes, with the page automatically refreshed every 10 minutes)

About coastal observations | Map of coastal stations | Coastal observations for QLD | Marine services | Other Formats
Station Details ID: 040842 Name: BRISBANE AERO Lat: -27.39 Lon: 153.13 Height: 4.51 m
Data from the previous 72 hours. | See also: Recent months at Brisbane Airport
Date/Time
EST
Temp
°C
Wind Pressure Rain since
9am
mm
Weather Cloud Vis
km
Sea
Height
m
Swell
Dir  Spd
kts
Gust
kts
hPa Trend Height
m
Period
s
Dir
21/08:00pm 25.8 ESE 9 17 1018.2 - 0.0 - Mostly clear 10 - - - -
21/07:30pm 26.0 ESE 9 16 1017.8 - 0.0 - Mostly clear 10 - - - -
21/07:00pm 26.2 ESE 10 15 1017.7 - 0.0 - Mostly clear 10 - - - -
21/06:30pm 26.3 ESE 9 15 1017.4 - 0.0 - Mostly clear 10 - - - -
21/06:00pm 26.5 ESE 10 17 1017.0 R 0.0 Fine Mostly cloudy 30 - - - -
21/05:30pm 26.7 ESE 11 19 1016.6 - 0.0 - Mostly clear 10 - - - -
21/05:00pm 27.1 ESE 11 18 1016.2 - 0.0 - Mostly clear 10 - - - -
21/04:30pm 27.8 ESE 12 18 1015.9 - 0.0 - Mostly clear 10 - - - -
21/04:00pm 28.3 SE 13 20 1015.7 - 0.0 - Mostly clear 10 - - - -
21/03:30pm 28.7 ESE 11 19 1015.5 - 0.0 - Mostly clear 10 - - - -
21/03:00pm 29.1 ESE 13 20 1015.6 R 0.0 Fine Cloudy 30 - - - -
21/02:30pm 29.2 ESE 12 19 1015.7 - 0.0 - Mostly clear 10 - - - -
21/02:00pm 29.6 ESE 12 19 1015.7 - 0.0 - Mostly clear 10 - - - -
21/01:30pm 29.0 ESE 13 18 1015.8 - 0.0 - Mostly clear 10 - - - -
21/01:00pm 29.7 ESE 11 18 1015.8 - 0.0 - Mostly clear 10 - - - -
21/12:30pm 29.2 ESE 12 18 1016.1 - 0.0 - Mostly clear 10 - - - -
21/12:00pm 29.3 ESE 12 17 1016.3 F 0.0 Fine Partly cloudy 30 - - - -
21/11:30am 29.4 ESE 12 17 1016.5 - 0.0 - Partly cloudy 10 - - - -
21/11:00am 29.0 ESE 11 16 1016.8 - 0.0 - Partly cloudy 10 - - - -
21/10:30am 29.0 ESE 9 14 1017.0 - 0.0 - Partly cloudy 10 - - - -
21/10:00am 28.6 ESE 8 11 1017.2 - 0.0 - Partly cloudy 10 - - - -
21/09:30am 28.7 ESE 7 11 1017.2 - 0.0 - Partly cloudy 10 - - - -
21/09:00am 27.9 SE 8 13 1017.3 R 0.0 Fine Partly cloudy 30 - - - -
21/08:30am 26.9 SSE 5 7 1017.1 - 0.0 - Mostly clear 10 - - - -
21/08:00am 26.3 SSW 6 8 1017.0 - 0.0 - Mostly clear 10 - - - -
21/07:30am 25.3 SSW 7 10 1016.8 - 0.0 - Mostly clear 10 - - - -
21/07:00am 24.0 SSW 8 10 1016.5 - 0.0 - Mostly clear 10 - - - -
21/06:30am 23.3 SSW 7 9 1016.0 - 0.0 - Mostly clear 10 - - - -
21/06:00am 22.5 SSW 5 7 1015.5 R 0.0 Distant precip. Mostly cloudy 30 - - - -
21/05:30am 22.1 SSW 5 6 1014.9 - 0.0 - Mostly clear 10 - - - -
21/05:00am 21.6 SSW 5 7 1014.4 - 0.0 - Mostly clear 10 - - - -
21/04:30am 22.6 SSW 5 7 1014.1 - 0.0 - Mostly clear 10 - - - -
21/04:00am 22.7 S 5 7 1014.0 - 0.0 - Mostly clear 10 - - - -
21/03:30am 22.8 SSW 5 7 1013.6 - 0.0 - Mostly clear 10 - - - -
21/03:00am 23.1 S 5 6 1013.7 R 0.0 Fine Mostly clear 30 - - - -
21/02:30am 23.3 SSW 1 4 1013.4 - 0.0 - Mostly clear 10 - - - -
21/02:00am 23.5 CALM 0 0 1013.5 - 0.0 - Mostly clear 10 - - - -
21/01:30am 23.8 S 4 6 1013.8 - 0.0 - Mostly clear 10 - - - -
21/01:00am 24.0 SE 3 4 1014.1 - 0.0 - Mostly clear 10 - - - -
21/12:30am 24.8 ESE 3 4 1014.4 - 0.0 - Mostly clear 10 - - - -
21/12:00am 25.1 E 4 5 1014.3 R 0.0 Fine Partly cloudy 30 - - - -
 
Date/Time
EST
Temp
°C
Wind Pressure Rain since
9am
mm
Weather Cloud Vis
km
Sea
Height
m
Swell
Dir  Spd
kts
Gust
kts
hPa Trend Height
m
Period
s
Dir
20/11:30pm 25.4 E 3 5 1014.6 - 0.0 - Partly cloudy 10 - - - -
20/11:00pm 25.4 ESE 4 6 1014.5 - 0.0 - Partly cloudy 10 - - - -
20/10:30pm 25.5 ESE 5 6 1014.6 - 0.0 - Partly cloudy 10 - - - -
20/10:00pm 25.5 ESE 5 7 1014.6 - 0.0 - Partly cloudy 10 - - - -
20/09:30pm 25.6 ESE 6 9 1014.5 - 0.0 - Partly cloudy 10 - - - -
20/09:00pm 25.6 ESE 6 10 1014.1 R 0.0 Fine Mostly cloudy 30 - - - -
20/08:30pm 25.7 ESE 7 10 1013.6 - 0.0 - Mostly clear 10 - - - -
20/08:00pm 25.9 ESE 6 9 1013.0 - 0.0 - - 10 - - - -
20/07:30pm 26.1 ESE 7 12 1012.5 - 0.0 - - 10 - - - -
20/07:00pm 26.4 ESE 7 10 1012.2 - 0.0 - Mostly clear 10 - - - -
20/06:30pm 26.6 E 6 10 1011.8 - 0.0 - Mostly clear 10 - - - -
20/06:00pm 27.2 E 7 10 1011.2 R 0.0 Fine Mostly cloudy 30 - - - -
20/05:30pm 27.6 ESE 7 11 1010.6 - 0.0 - Mostly clear 10 - - - -
20/05:00pm 28.5 ESE 8 13 1010.0 - 0.0 - - 10 - - - -
20/04:30pm 28.6 E 9 14 1009.7 - 0.0 - Mostly clear 10 - - - -
20/04:00pm 28.9 E 9 13 1009.4 - 0.0 - Mostly clear 10 - - - -
20/03:30pm 29.3 E 9 15 1009.3 - 0.0 - - 10 - - - -
20/03:00pm 29.8 E 9 14 1009.3 R 0.0 Fine Mostly clear 30 - - - -
20/02:30pm 29.6 E 9 15 1009.4 - 0.0 - - 10 - - - -
20/02:00pm 29.6 ESE 10 16 1009.5 - 0.0 - Mostly clear 10 - - - -
20/01:30pm 29.2 ESE 9 16 1009.6 - 0.0 - Mostly clear 10 - - - -
20/01:00pm 29.8 E 9 14 1009.9 - 0.0 - Mostly clear 10 - - - -
20/12:30pm 29.8 ESE 8 12 1010.2 - 0.0 - Mostly clear 10 - - - -
20/12:00pm 29.0 ESE 8 12 1010.5 F 0.0 Fine Mostly cloudy 30 - - - -
20/11:30am 29.1 S 7 13 1010.8 - 0.0 - Mostly clear 10 - - - -
20/11:00am 28.6 S 8 12 1011.3 - 0.0 - Mostly clear 10 - - - -
20/10:30am 27.7 S 7 12 1011.3 - 0.0 - Mostly clear 10 - - - -
20/10:00am 27.3 SW 10 16 1011.3 - 0.0 - Mostly clear 10 - - - -
20/09:30am 26.7 SW 9 14 1011.5 - 0.0 - Mostly clear 10 - - - -
20/09:00am 25.2 WSW 7 11 1011.6 R 7.8 Fine Mostly cloudy 30 - - - -
20/08:30am 24.6 SW 5 7 1011.7 - 7.8 - Mostly clear 10 - - - -
20/08:00am 23.8 SSW 5 7 1011.5 - 7.8 - Mostly clear 10 - - - -
20/07:30am 23.4 SSW 5 7 1011.1 - 7.8 - Mostly clear 10 - - - -
20/07:00am 23.2 SSW 6 7 1010.8 - 7.8 - Mostly clear 10 - - - -
20/06:30am 22.6 SE 4 4 1010.3 - 7.8 - Mostly clear 10 - - - -
20/06:00am 21.8 SSW 4 5 1009.7 R 7.8 Fine Mostly cloudy 25 - - - -
20/05:30am 22.0 S 6 7 1009.0 - 7.8 - Mostly clear 10 - - - -
20/05:00am 22.2 SSW 6 8 1008.5 - 7.8 - - 10 - - - -
20/04:30am 22.3 SSW 5 7 1007.8 - 7.8 - - 10 - - - -
20/04:00am 22.1 SW 5 7 1007.3 - 7.8 - - 10 - - - -
20/03:30am 22.4 SSW 1 4 1006.7 - 7.8 - Partly cloudy 10 - - - -
20/03:00am 22.4 N 5 7 1006.9 F 7.8 Fine Mostly cloudy 20 - - - -
20/02:30am 22.3 NNE 4 5 1007.4 - 7.6 - Partly cloudy 10 - - - -
20/02:00am 22.5 WSW 6 7 1008.1 - 7.6 - Partly cloudy 10 - - - -
20/01:30am 22.5 SSW 4 5 1007.9 - 7.6 - Mostly clear 10 - - - -
20/01:00am 22.5 SW 9 12 1008.7 - 7.6 - Mostly clear 10 - - - -
20/12:30am 22.4 SW 9 12 1008.7 - 7.6 - Partly cloudy 10 - - - -
20/12:00am 21.7 SW 9 11 1009.2 R 7.6 Distant precip. Mostly cloudy 18 - - - -
 
Date/Time
EST
Temp
°C
Wind Pressure Rain since
9am
mm
Weather Cloud Vis
km
Sea
Height
m
Swell
Dir  Spd
kts
Gust
kts
hPa Trend Height
m
Period
s
Dir
19/11:30pm 21.6 SW 9 12 1009.4 - 7.6 - Mostly clear 10 - - - -
19/11:00pm 21.2 SSW 9 14 1008.9 - 7.4 - Mostly clear 10 - - - -
19/10:46pm 21.3 WSW 13 16 1009.6 - 7.2 Showers Mostly clear 9 - - - -
19/10:30pm 21.9 WSW 19 27 1010.0 - 6.0 Showers Mostly clear 3 - - - -
19/10:18pm 23.3 W 15 22 1009.8 - 4.6 Showers Mostly clear 3 - - - -
19/10:00pm 23.9 WNW 7 9 1009.4 - 4.2 - Mostly clear 10 - - - -
19/09:30pm 23.6 WSW 1 6 1008.9 - 4.2 - Mostly clear 10 - - - -
19/09:00pm 23.5 NW 4 7 1008.8 F 3.8 Showers Cloudy 9 - - - -
19/08:30pm 23.9 N 7 12 1008.9 - 3.0 Rain Mostly clear 10 - - - -
19/08:00pm 24.2 NW 5 7 1008.5 - 2.4 - Mostly clear 10 - - - -
19/07:30pm 24.0 SW 2 5 1008.1 - 2.2 Rain Mostly clear 10 - - - -
19/07:00pm 24.3 WSW 4 8 1007.6 - 1.4 - Mostly clear 10 - - - -
19/06:30pm 24.2 ENE 6 8 1007.2 - 1.4 Showers Mostly clear 10 - - - -
19/06:00pm 24.6 N 6 8 1007.5 R 1.0 Showers Cloudy 8 - - - -
19/05:30pm 24.4 N 5 8 1006.3 - 0.8 Showers Mostly clear 10 - - - -
19/05:00pm 24.8 N 8 14 1006.0 - 0.4 - Mostly clear 10 - - - -
19/04:30pm 26.4 N 10 14 1005.9 - 0.0 Showers Mostly clear 10 - - - -
19/04:00pm 27.5 N 10 13 1006.1 - 0.0 - Partly cloudy 10 - - - -
19/03:30pm 27.9 N 9 13 1006.0 - 0.0 - Partly cloudy 10 - - - -
19/03:00pm 28.2 N 12 16 1006.3 R 0.0 Fine Cloudy 30 - - - -
19/02:30pm 29.1 NNE 12 15 1005.8 - 0.0 - - 10 - - - -
19/02:00pm 29.4 NNE 13 18 1006.1 - 0.0 - Partly cloudy 10 - - - -
19/01:30pm 29.9 NNE 13 17 1006.2 - 0.0 - Mostly clear 10 - - - -
19/01:00pm 31.4 NNE 13 16 1006.4 - 0.0 - Mostly clear 10 - - - -
19/12:30pm 31.7 NNE 12 15 1006.7 - 0.0 - Mostly clear 10 - - - -
19/12:00pm 31.2 NNE 11 15 1006.9 F 0.0 Fine Mostly cloudy 30 - - - -
19/11:30am 31.1 NNE 11 14 1007.3 - 0.0 - Mostly clear 10 - - - -
19/11:00am 30.2 NNE 9 12 1007.5 - 0.0 - Mostly clear 10 - - - -
19/10:30am 29.6 NNE 9 10 1007.8 - 0.0 - Mostly clear 10 - - - -
19/10:00am 29.6 N 8 10 1008.0 - 0.0 - Mostly clear 10 - - - -
19/09:30am 28.5 NNW 7 10 1008.1 - 0.0 - Mostly clear 10 - - - -
19/09:00am 27.1 NNW 7 13 1008.2 F 0.0 Fine Mostly cloudy 30 - - - -
19/08:30am 26.7 NNW 8 11 1008.4 - 0.0 - - 10 - - - -
19/08:00am 25.6 NNW 8 10 1008.4 - 0.0 - - 10 - - - -
19/07:30am 24.8 NNE 6 7 1008.3 - 0.0 - Mostly clear 10 - - - -
19/07:00am 23.9 NNW 7 8 1008.5 - 0.0 - - 10 - - - -
19/06:30am 23.3 NNW 3 4 1008.6 - 0.0 - Mostly clear 10 - - - -
19/06:00am 23.0 NW 5 8 1008.7 F 0.0 Fine Mostly cloudy 30 - - - -
19/05:30am 22.7 WNW 5 7 1008.7 - 0.0 - Mostly clear 10 - - - -
19/05:00am 22.6 NW 6 8 1008.4 - 0.0 - Mostly clear 10 - - - -
19/04:30am 22.5 CALM 0 0 1008.2 - 0.0 - Mostly clear 10 - - - -
19/04:00am 22.8 SSW 6 9 1008.6 - 0.0 - Mostly clear 10 - - - -
19/03:30am 23.2 SW 9 13 1008.8 - 0.0 - Mostly clear 10 - - - -
19/03:00am 23.9 WSW 10 14 1009.3 R 0.0 Distant precip. Mostly cloudy 30 - - - -
19/02:30am 24.1 WSW 8 11 1009.3 - 0.0 - Mostly clear 10 - - - -
19/02:00am 24.7 NW 6 8 1009.2 - 0.0 - Mostly clear 10 - - - -
19/01:30am 25.1 NW 6 8 1009.1 - 0.0 - Mostly clear 10 - - - -
19/01:00am 25.3 NNW 8 12 1009.4 - 0.0 - Cloudy 10 - - - -
19/12:30am 25.9 NNW 15 19 1010.0 - 0.0 - Mostly clear 10 - - - -
19/12:00am 25.9 N 17 22 1008.7 R 0.0 Fine Partly cloudy 30 - - - -
 
Date/Time
EST
Temp
°C
Wind Pressure Rain since
9am
mm
Weather Cloud Vis
km
Sea
Height
m
Swell
Dir  Spd
kts
Gust
kts
hPa Trend Height
m
Period
s
Dir
18/11:30pm 25.9 N 16 21 1008.9 - 0.0 - Mostly clear 10 - - - -
18/11:00pm 26.0 N 16 22 1009.0 - 0.0 - Mostly clear 10 - - - -
18/10:30pm 26.4 N 17 22 1008.7 - 0.0 - Partly cloudy 10 - - - -
18/10:00pm 26.4 N 18 22 1008.6 - 0.0 - Partly cloudy 10 - - - -
18/09:30pm 26.2 N 19 24 1008.6 - 0.0 - Mostly clear 10 - - - -
18/09:00pm 26.4 N 19 33 1008.4 F 0.0 Fine Mostly clear 30 - - - -
18/08:53pm 26.3 N 18 30 1008.4 - 0.0 - Mostly clear 10 - - - -
18/08:30pm 26.3 N 17 23 1008.3 - 0.0 - Mostly clear 10 - - - -

Other Formats:

Comma delimited format used in spreadsheet applications
http://www.bom.gov.au/fwo/IDQ60701/IDQ60701.94578.axf

JavaScript Object Notation format (JSON) in row-major order
http://www.bom.gov.au/fwo/IDQ60701/IDQ60701.94578.json